createdAt,value
2018-05-27T00:00:06.404Z,1014.38
2018-05-27T00:00:32.547Z,1014.37
2018-05-27T00:00:58.687Z,1014.35
2018-05-27T00:01:24.828Z,1014.4
2018-05-27T00:01:50.969Z,1014.36
2018-05-27T00:02:17.132Z,1014.34
2018-05-27T00:02:43.303Z,1014.37
2018-05-27T00:03:09.438Z,1014.37
2018-05-27T00:03:35.580Z,1014.34
2018-05-27T00:04:01.718Z,1014.36
2018-05-27T00:04:27.865Z,1014.39
2018-05-27T00:04:54.004Z,1014.36
2018-05-27T00:05:20.174Z,1014.41
2018-05-27T00:05:46.335Z,1014.42
2018-05-27T00:06:12.468Z,1014.38
2018-05-27T00:06:38.614Z,1014.38
2018-05-27T00:07:04.750Z,1014.34
2018-05-27T00:07:30.894Z,1014.39
2018-05-27T00:07:57.034Z,1014.41
2018-05-27T00:08:23.199Z,1014.35
2018-05-27T00:08:49.336Z,1014.34
2018-05-27T00:09:15.483Z,1014.39
2018-05-27T00:09:41.650Z,1014.38
2018-05-27T00:10:07.813Z,1014.37
2018-05-27T00:10:33.957Z,1014.38
2018-05-27T00:11:00.100Z,1014.35
2018-05-27T00:11:26.265Z,1014.36
2018-05-27T00:11:52.402Z,1014.34
2018-05-27T00:12:18.566Z,1014.31
2018-05-27T00:12:44.706Z,1014.34
2018-05-27T00:13:10.854Z,1014.29
2018-05-27T00:13:37.015Z,1014.3
2018-05-27T00:14:03.159Z,1014.29
2018-05-27T00:14:29.296Z,1014.26
2018-05-27T00:14:55.433Z,1014.27
2018-05-27T00:15:21.573Z,1014.25
2018-05-27T00:15:47.715Z,1014.22
2018-05-27T00:16:13.861Z,1014.21
2018-05-27T00:16:40.004Z,1014.21
2018-05-27T00:17:06.139Z,1014.21
2018-05-27T00:17:32.289Z,1014.22
2018-05-27T00:17:58.426Z,1014.21
2018-05-27T00:18:24.589Z,1014.18
2018-05-27T00:18:50.735Z,1014.15
2018-05-27T00:19:16.899Z,1014.16
2018-05-27T00:19:43.036Z,1014.18
2018-05-27T00:20:09.176Z,1014.17
2018-05-27T00:20:36.744Z,1014.19
2018-05-27T00:21:03.704Z,1014.18
2018-05-27T00:21:29.844Z,1014.14
2018-05-27T00:21:56.009Z,1014.12
2018-05-27T00:22:22.164Z,1014.17
2018-05-27T00:22:48.310Z,1014.1
2018-05-27T00:23:14.447Z,1014.11
2018-05-27T00:23:40.606Z,1014.11
2018-05-27T00:24:06.748Z,1014.11
2018-05-27T00:24:32.879Z,1014.12
2018-05-27T00:24:59.020Z,1014.11
2018-05-27T00:25:25.158Z,1014.09
2018-05-27T00:25:51.325Z,1014.1
2018-05-27T00:26:17.469Z,1014.11
2018-05-27T00:26:43.634Z,1014.11
2018-05-27T00:27:09.765Z,1014.1
2018-05-27T00:27:35.943Z,1014.1
2018-05-27T00:28:02.083Z,1014.12
2018-05-27T00:28:28.227Z,1014.14
2018-05-27T00:28:54.395Z,1014.13
2018-05-27T00:29:20.540Z,1014.1
2018-05-27T00:29:46.682Z,1014.13
2018-05-27T00:30:12.822Z,1014.15
2018-05-27T00:30:38.964Z,1014.12
2018-05-27T00:31:05.110Z,1014.12
2018-05-27T00:31:31.265Z,1014.17
2018-05-27T00:31:57.411Z,1014.16
2018-05-27T00:32:23.570Z,1014.14
2018-05-27T00:32:49.715Z,1014.15
2018-05-27T00:33:15.859Z,1014.14
2018-05-27T00:33:42.017Z,1014.17
2018-05-27T00:34:08.159Z,1014.18
2018-05-27T00:34:34.322Z,1014.16
2018-05-27T00:35:00.458Z,1014.19
2018-05-27T00:35:26.595Z,1014.17
2018-05-27T00:35:52.743Z,1014.2
2018-05-27T00:36:18.889Z,1014.15
2018-05-27T00:36:45.029Z,1014.18
2018-05-27T00:37:11.171Z,1014.15
2018-05-27T00:37:37.312Z,1014.17
2018-05-27T00:38:03.454Z,1014.14
2018-05-27T00:38:29.597Z,1014.14
2018-05-27T00:38:55.775Z,1014.14
2018-05-27T00:39:21.916Z,1014.12
2018-05-27T00:39:48.052Z,1014.12
2018-05-27T00:40:14.188Z,1014.14
2018-05-27T00:40:40.337Z,1014.14
2018-05-27T00:41:06.473Z,1014.17
2018-05-27T00:41:32.615Z,1014.17
2018-05-27T00:41:58.747Z,1014.15
2018-05-27T00:42:24.893Z,1014.14
2018-05-27T00:42:51.030Z,1014.18
2018-05-27T00:43:17.167Z,1014.15
2018-05-27T00:43:43.313Z,1014.16
2018-05-27T00:44:09.454Z,1014.17
2018-05-27T00:44:35.596Z,1014.19
2018-05-27T00:45:01.736Z,1014.2
2018-05-27T00:45:27.893Z,1014.18
2018-05-27T00:45:54.035Z,1014.2
2018-05-27T00:46:20.177Z,1014.18
2018-05-27T00:46:46.317Z,1014.15
2018-05-27T00:47:12.451Z,1014.2
2018-05-27T00:47:38.594Z,1014.16
2018-05-27T00:48:04.756Z,1014.15
2018-05-27T00:48:30.891Z,1014.12
2018-05-27T00:48:57.032Z,1014.16
2018-05-27T00:49:23.193Z,1014.15
2018-05-27T00:49:49.399Z,1014.17
2018-05-27T00:50:15.512Z,1014.12
2018-05-27T00:50:41.653Z,1014.13
2018-05-27T00:51:07.799Z,1014.12
2018-05-27T00:51:33.935Z,1014.15
2018-05-27T00:52:00.082Z,1014.1
2018-05-27T00:52:26.223Z,1014.11
2018-05-27T00:52:52.389Z,1014.12
2018-05-27T00:53:18.525Z,1014.08
2018-05-27T00:53:44.661Z,1014.09
2018-05-27T00:54:10.805Z,1014.08
2018-05-27T00:54:36.943Z,1014.07
2018-05-27T00:55:03.081Z,1014.1
2018-05-27T00:55:29.226Z,1014.08
2018-05-27T00:55:55.363Z,1014.11
2018-05-27T00:56:21.508Z,1014.06
2018-05-27T00:56:47.640Z,1014.06
2018-05-27T00:57:13.785Z,1014.06
2018-05-27T00:57:39.943Z,1014.1
2018-05-27T00:58:06.116Z,1014.05
2018-05-27T00:58:32.258Z,1014.04
2018-05-27T00:58:58.401Z,1014.05
2018-05-27T00:59:24.539Z,1014.07
2018-05-27T00:59:50.679Z,1014.07
2018-05-27T01:00:16.821Z,1014.04
2018-05-27T01:00:42.972Z,1014.03
2018-05-27T01:01:09.138Z,1014.03
2018-05-27T01:01:35.307Z,1014.05
2018-05-27T01:02:01.475Z,1014.01
2018-05-27T01:02:27.631Z,1014.03
2018-05-27T01:02:53.772Z,1014.01
2018-05-27T01:03:19.935Z,1014.01
2018-05-27T01:03:46.082Z,1014.03
2018-05-27T01:04:12.242Z,1014.03
2018-05-27T01:04:38.387Z,1013.98
2018-05-27T01:05:04.523Z,1013.99
2018-05-27T01:05:30.670Z,1014
2018-05-27T01:05:56.804Z,1014.03
2018-05-27T01:06:22.946Z,1014.02
2018-05-27T01:06:49.134Z,1014.01
2018-05-27T01:07:15.305Z,1014.03
2018-05-27T01:07:41.455Z,1014
2018-05-27T01:08:07.589Z,1014.04
2018-05-27T01:08:33.746Z,1014.03
2018-05-27T01:08:59.879Z,1014.01
2018-05-27T01:09:26.023Z,1013.99
2018-05-27T01:09:52.157Z,1013.98
2018-05-27T01:10:18.303Z,1014.03
2018-05-27T01:10:44.445Z,1014.03
2018-05-27T01:11:10.607Z,1014.06
2018-05-27T01:11:36.752Z,1014.02
2018-05-27T01:12:02.912Z,1014.01
2018-05-27T01:12:29.048Z,1014.03
2018-05-27T01:12:55.196Z,1014.03
2018-05-27T01:13:21.336Z,1014.04
2018-05-27T01:13:47.478Z,1014.03
2018-05-27T01:14:13.677Z,1013.99
2018-05-27T01:14:39.841Z,1014.04
2018-05-27T01:15:05.977Z,1014.01
2018-05-27T01:15:32.115Z,1014
2018-05-27T01:15:58.254Z,1014.03
2018-05-27T01:16:24.428Z,1014.02
2018-05-27T01:16:50.562Z,1013.99
2018-05-27T01:17:16.727Z,1014
2018-05-27T01:17:42.868Z,1013.97
2018-05-27T01:18:09.040Z,1013.98
2018-05-27T01:18:35.179Z,1013.98
2018-05-27T01:19:01.315Z,1013.97
2018-05-27T01:19:27.487Z,1013.96
2018-05-27T01:19:53.646Z,1013.97
2018-05-27T01:20:19.781Z,1013.94
2018-05-27T01:20:45.926Z,1013.95
2018-05-27T01:21:12.066Z,1013.96
2018-05-27T01:21:38.239Z,1013.93
2018-05-27T01:22:04.386Z,1013.93
2018-05-27T01:22:30.540Z,1013.92
2018-05-27T01:22:56.694Z,1013.91
2018-05-27T01:23:22.824Z,1013.95
2018-05-27T01:23:48.970Z,1013.88
2018-05-27T01:24:15.106Z,1013.91
2018-05-27T01:24:41.252Z,1013.89
2018-05-27T01:25:07.391Z,1013.88
2018-05-27T01:25:33.524Z,1013.86
2018-05-27T01:25:59.666Z,1013.86
2018-05-27T01:26:25.803Z,1013.87
2018-05-27T01:26:51.946Z,1013.87
2018-05-27T01:27:18.093Z,1013.87
2018-05-27T01:27:44.232Z,1013.88
2018-05-27T01:28:10.378Z,1013.87
2018-05-27T01:28:36.517Z,1013.86
2018-05-27T01:29:02.665Z,1013.9
2018-05-27T01:29:28.803Z,1013.87
2018-05-27T01:29:54.943Z,1013.86
2018-05-27T01:30:21.080Z,1013.85
2018-05-27T01:30:47.216Z,1013.89
2018-05-27T01:31:13.359Z,1013.84
2018-05-27T01:31:39.495Z,1013.88
2018-05-27T01:32:05.639Z,1013.92
2018-05-27T01:32:31.778Z,1013.87
2018-05-27T01:32:57.921Z,1013.9
2018-05-27T01:33:24.066Z,1013.92
2018-05-27T01:33:50.200Z,1013.93
2018-05-27T01:34:16.367Z,1013.92
2018-05-27T01:34:42.507Z,1013.92
2018-05-27T01:35:08.646Z,1013.91
2018-05-27T01:35:34.789Z,1013.95
2018-05-27T01:36:00.926Z,1013.92
2018-05-27T01:36:27.071Z,1013.93
2018-05-27T01:36:53.207Z,1013.94
2018-05-27T01:37:19.350Z,1013.93
2018-05-27T01:37:45.493Z,1013.88
2018-05-27T01:38:11.627Z,1013.94
2018-05-27T01:38:37.769Z,1013.96
2018-05-27T01:39:03.915Z,1013.93
2018-05-27T01:39:30.051Z,1013.93
2018-05-27T01:39:56.218Z,1013.91
2018-05-27T01:40:22.386Z,1013.91
2018-05-27T01:40:48.571Z,1013.87
2018-05-27T01:41:14.727Z,1013.88
2018-05-27T01:41:40.869Z,1013.83
2018-05-27T01:42:07.022Z,1013.87
2018-05-27T01:42:33.181Z,1013.87
2018-05-27T01:42:59.322Z,1013.85
2018-05-27T01:43:25.457Z,1013.85
2018-05-27T01:43:51.625Z,1013.87
2018-05-27T01:44:17.788Z,1013.87
2018-05-27T01:44:43.932Z,1013.86
2018-05-27T01:45:10.073Z,1013.84
2018-05-27T01:45:36.212Z,1013.84
2018-05-27T01:46:02.354Z,1013.86
2018-05-27T01:46:28.497Z,1013.87
2018-05-27T01:46:54.664Z,1013.84
2018-05-27T01:47:20.807Z,1013.81
2018-05-27T01:47:46.960Z,1013.86
2018-05-27T01:48:13.099Z,1013.86
2018-05-27T01:48:39.241Z,1013.84
2018-05-27T01:49:05.379Z,1013.83
2018-05-27T01:49:31.519Z,1013.85
2018-05-27T01:49:57.687Z,1013.82
2018-05-27T01:50:23.822Z,1013.86
2018-05-27T01:50:49.963Z,1013.83
2018-05-27T01:51:16.103Z,1013.8
2018-05-27T01:51:42.246Z,1013.85
2018-05-27T01:52:08.387Z,1013.84
2018-05-27T01:52:34.555Z,1013.81
2018-05-27T01:53:00.697Z,1013.83
2018-05-27T01:53:26.837Z,1013.79
2018-05-27T01:53:52.974Z,1013.77
2018-05-27T01:54:19.110Z,1013.8
2018-05-27T01:54:45.288Z,1013.8
2018-05-27T01:55:11.445Z,1013.78
2018-05-27T01:55:37.590Z,1013.76
2018-05-27T01:56:03.734Z,1013.76
2018-05-27T01:56:29.867Z,1013.76
2018-05-27T01:56:56.013Z,1013.74
2018-05-27T01:57:22.147Z,1013.76
2018-05-27T01:57:48.295Z,1013.72
2018-05-27T01:58:14.481Z,1013.7
2018-05-27T01:58:40.625Z,1013.75
2018-05-27T01:59:06.793Z,1013.74
2018-05-27T01:59:32.932Z,1013.73
2018-05-27T01:59:59.067Z,1013.72
2018-05-27T02:00:25.207Z,1013.7
2018-05-27T02:00:51.352Z,1013.68
2018-05-27T02:01:17.493Z,1013.67
2018-05-27T02:01:43.633Z,1013.67
2018-05-27T02:02:09.772Z,1013.69
2018-05-27T02:02:35.939Z,1013.68
2018-05-27T02:03:02.102Z,1013.69
2018-05-27T02:03:28.234Z,1013.67
2018-05-27T02:03:54.372Z,1013.67
2018-05-27T02:04:20.523Z,1013.65
2018-05-27T02:04:46.691Z,1013.68
2018-05-27T02:05:12.833Z,1013.7
2018-05-27T02:05:38.975Z,1013.69
2018-05-27T02:06:05.151Z,1013.68
2018-05-27T02:06:31.290Z,1013.69
2018-05-27T02:06:57.432Z,1013.69
2018-05-27T02:07:23.568Z,1013.64
2018-05-27T02:07:49.731Z,1013.71
2018-05-27T02:08:15.923Z,1013.72
2018-05-27T02:08:42.066Z,1013.7
2018-05-27T02:09:08.215Z,1013.7
2018-05-27T02:09:34.373Z,1013.68
2018-05-27T02:10:00.517Z,1013.71
2018-05-27T02:10:26.704Z,1013.69
2018-05-27T02:10:52.846Z,1013.72
2018-05-27T02:11:19.000Z,1013.67
2018-05-27T02:11:45.145Z,1013.67
2018-05-27T02:12:11.336Z,1013.69
2018-05-27T02:12:37.507Z,1013.69
2018-05-27T02:13:03.651Z,1013.65
2018-05-27T02:13:29.789Z,1013.67
2018-05-27T02:13:55.929Z,1013.62
2018-05-27T02:14:22.090Z,1013.67
2018-05-27T02:14:48.254Z,1013.65
2018-05-27T02:15:14.397Z,1013.66
2018-05-27T02:15:40.536Z,1013.67
2018-05-27T02:16:06.710Z,1013.67
2018-05-27T02:16:32.843Z,1013.64
2018-05-27T02:16:58.983Z,1013.64
2018-05-27T02:17:25.114Z,1013.65
2018-05-27T02:17:51.252Z,1013.61
2018-05-27T02:18:17.447Z,1013.65
2018-05-27T02:18:43.606Z,1013.6
2018-05-27T02:19:09.761Z,1013.62
2018-05-27T02:19:35.891Z,1013.62
2018-05-27T02:20:02.028Z,1013.6
2018-05-27T02:20:28.164Z,1013.59
2018-05-27T02:20:54.332Z,1013.6
2018-05-27T02:21:20.473Z,1013.62
2018-05-27T02:21:46.613Z,1013.64
2018-05-27T02:22:12.747Z,1013.57
2018-05-27T02:22:38.885Z,1013.6
2018-05-27T02:23:05.027Z,1013.62
2018-05-27T02:23:31.166Z,1013.66
2018-05-27T02:23:57.300Z,1013.62
2018-05-27T02:24:23.440Z,1013.65
2018-05-27T02:24:49.586Z,1013.65
2018-05-27T02:25:15.727Z,1013.64
2018-05-27T02:25:41.871Z,1013.69
2018-05-27T02:26:08.030Z,1013.69
2018-05-27T02:26:34.171Z,1013.69
2018-05-27T02:27:00.312Z,1013.69
2018-05-27T02:27:26.458Z,1013.71
2018-05-27T02:27:52.602Z,1013.71
2018-05-27T02:28:18.817Z,1013.74
2018-05-27T02:28:44.957Z,1013.75
2018-05-27T02:29:11.122Z,1013.77
2018-05-27T02:29:37.256Z,1013.73
2018-05-27T02:30:03.396Z,1013.73
2018-05-27T02:30:29.558Z,1013.71
2018-05-27T02:30:55.702Z,1013.7
2018-05-27T02:31:21.864Z,1013.69
2018-05-27T02:31:47.999Z,1013.71
2018-05-27T02:32:14.163Z,1013.68
2018-05-27T02:32:40.333Z,1013.7
2018-05-27T02:33:06.500Z,1013.71
2018-05-27T02:33:32.679Z,1013.71
2018-05-27T02:33:58.877Z,1013.73
2018-05-27T02:34:25.044Z,1013.69
2018-05-27T02:34:51.203Z,1013.71
2018-05-27T02:35:17.369Z,1013.71
2018-05-27T02:35:43.559Z,1013.68
2018-05-27T02:36:09.720Z,1013.71
2018-05-27T02:36:35.887Z,1013.71
2018-05-27T02:37:02.078Z,1013.68
2018-05-27T02:37:28.251Z,1013.7
2018-05-27T02:37:54.440Z,1013.68
2018-05-27T02:38:20.625Z,1013.69
2018-05-27T02:38:46.810Z,1013.67
2018-05-27T02:39:12.951Z,1013.69
2018-05-27T02:39:39.088Z,1013.66
2018-05-27T02:40:05.259Z,1013.69
2018-05-27T02:40:31.420Z,1013.67
2018-05-27T02:40:57.581Z,1013.64
2018-05-27T02:41:23.725Z,1013.66
2018-05-27T02:41:49.911Z,1013.65
2018-05-27T02:42:16.057Z,1013.63
2018-05-27T02:42:42.195Z,1013.63
2018-05-27T02:43:08.336Z,1013.64
2018-05-27T02:43:34.528Z,1013.64
2018-05-27T02:44:00.657Z,1013.63
2018-05-27T02:44:26.826Z,1013.64
2018-05-27T02:44:52.994Z,1013.64
2018-05-27T02:45:19.129Z,1013.64
2018-05-27T02:45:45.300Z,1013.6
2018-05-27T02:46:11.484Z,1013.62
2018-05-27T02:46:37.649Z,1013.59
2018-05-27T02:47:03.785Z,1013.61
2018-05-27T02:47:29.967Z,1013.6
2018-05-27T02:47:56.111Z,1013.6
2018-05-27T02:48:22.250Z,1013.63
2018-05-27T02:48:48.389Z,1013.61
2018-05-27T02:49:14.536Z,1013.62
2018-05-27T02:49:40.714Z,1013.61
2018-05-27T02:50:06.854Z,1013.63
2018-05-27T02:50:32.996Z,1013.64
2018-05-27T02:50:59.189Z,1013.65
2018-05-27T02:51:25.366Z,1013.64
2018-05-27T02:51:51.579Z,1013.68
2018-05-27T02:52:17.776Z,1013.68
2018-05-27T02:52:43.974Z,1013.67
2018-05-27T02:53:10.130Z,1013.68
2018-05-27T02:53:36.265Z,1013.71
2018-05-27T02:54:02.413Z,1013.68
2018-05-27T02:54:28.598Z,1013.67
2018-05-27T02:54:54.785Z,1013.68
2018-05-27T02:55:20.946Z,1013.7
2018-05-27T02:55:47.120Z,1013.71
2018-05-27T02:56:13.257Z,1013.73
2018-05-27T02:56:39.418Z,1013.71
2018-05-27T02:57:05.556Z,1013.69
2018-05-27T02:57:31.760Z,1013.7
2018-05-27T02:57:57.946Z,1013.69
2018-05-27T02:58:24.093Z,1013.73
2018-05-27T02:58:50.277Z,1013.68
2018-05-27T02:59:16.419Z,1013.7
2018-05-27T02:59:42.564Z,1013.71
2018-05-27T03:00:08.745Z,1013.7
2018-05-27T03:00:34.910Z,1013.76
2018-05-27T03:01:01.122Z,1013.73
2018-05-27T03:01:27.279Z,1013.75
2018-05-27T03:01:53.465Z,1013.76
2018-05-27T03:02:19.609Z,1013.76
2018-05-27T03:02:45.749Z,1013.79
2018-05-27T03:03:11.910Z,1013.82
2018-05-27T03:03:38.028Z,1013.81
2018-05-27T03:04:04.196Z,1013.82
2018-05-27T03:04:30.379Z,1013.82
2018-05-27T03:04:56.548Z,1013.8
2018-05-27T03:05:22.728Z,1013.79
2018-05-27T03:05:48.889Z,1013.78
2018-05-27T03:06:15.085Z,1013.79
2018-05-27T03:06:41.263Z,1013.78
2018-05-27T03:07:07.399Z,1013.8
2018-05-27T03:07:33.603Z,1013.79
2018-05-27T03:07:59.758Z,1013.76
2018-05-27T03:08:25.924Z,1013.77
2018-05-27T03:08:52.168Z,1013.79
2018-05-27T03:09:18.319Z,1013.77
2018-05-27T03:09:44.461Z,1013.77
2018-05-27T03:10:10.643Z,1013.7
2018-05-27T03:10:36.837Z,1013.71
2018-05-27T03:11:03.024Z,1013.76
2018-05-27T03:11:29.180Z,1013.73
2018-05-27T03:11:55.353Z,1013.71
2018-05-27T03:12:21.517Z,1013.72
2018-05-27T03:12:47.658Z,1013.73
2018-05-27T03:13:13.802Z,1013.72
2018-05-27T03:13:39.965Z,1013.69
2018-05-27T03:14:06.108Z,1013.7
2018-05-27T03:14:32.248Z,1013.72
2018-05-27T03:14:58.417Z,1013.75
2018-05-27T03:15:24.561Z,1013.74
2018-05-27T03:15:50.748Z,1013.75
2018-05-27T03:16:16.890Z,1013.73
2018-05-27T03:16:43.029Z,1013.74
2018-05-27T03:17:09.222Z,1013.72
2018-05-27T03:17:35.385Z,1013.76
2018-05-27T03:18:01.554Z,1013.76
2018-05-27T03:18:27.700Z,1013.74
2018-05-27T03:18:53.921Z,1013.78
2018-05-27T03:19:20.063Z,1013.75
2018-05-27T03:19:46.199Z,1013.75
2018-05-27T03:20:12.340Z,1013.77
2018-05-27T03:20:38.489Z,1013.77
2018-05-27T03:21:04.628Z,1013.79
2018-05-27T03:21:30.795Z,1013.78
2018-05-27T03:21:56.938Z,1013.76
2018-05-27T03:22:23.081Z,1013.79
2018-05-27T03:22:49.253Z,1013.75
2018-05-27T03:23:15.403Z,1013.76
2018-05-27T03:23:41.590Z,1013.76
2018-05-27T03:24:07.731Z,1013.75
2018-05-27T03:24:33.894Z,1013.77
2018-05-27T03:25:00.054Z,1013.75
2018-05-27T03:25:26.197Z,1013.74
2018-05-27T03:25:52.349Z,1013.75
2018-05-27T03:26:18.491Z,1013.73
2018-05-27T03:26:44.632Z,1013.71
2018-05-27T03:27:10.760Z,1013.78
2018-05-27T03:27:36.899Z,1013.73
2018-05-27T03:28:03.048Z,1013.73
2018-05-27T03:28:29.187Z,1013.74
2018-05-27T03:28:55.328Z,1013.75
2018-05-27T03:29:21.468Z,1013.74
2018-05-27T03:29:47.611Z,1013.74
2018-05-27T03:30:13.750Z,1013.72
2018-05-27T03:30:39.940Z,1013.72
2018-05-27T03:31:06.102Z,1013.73
2018-05-27T03:31:32.274Z,1013.72
2018-05-27T03:31:58.411Z,1013.71
2018-05-27T03:32:24.555Z,1013.7
2018-05-27T03:32:50.695Z,1013.7
2018-05-27T03:33:16.836Z,1013.7
2018-05-27T03:33:43.002Z,1013.71
2018-05-27T03:34:09.145Z,1013.7
2018-05-27T03:34:35.306Z,1013.73
2018-05-27T03:35:01.452Z,1013.73
2018-05-27T03:35:27.593Z,1013.7
2018-05-27T03:35:53.735Z,1013.72
2018-05-27T03:36:19.904Z,1013.75
2018-05-27T03:36:46.050Z,1013.73
2018-05-27T03:37:12.218Z,1013.7
2018-05-27T03:37:38.374Z,1013.73
2018-05-27T03:38:04.518Z,1013.75
2018-05-27T03:38:30.652Z,1013.76
2018-05-27T03:38:56.796Z,1013.74
2018-05-27T03:39:22.943Z,1013.72
2018-05-27T03:39:49.093Z,1013.72
2018-05-27T03:40:15.280Z,1013.71
2018-05-27T03:40:41.418Z,1013.71
2018-05-27T03:41:07.551Z,1013.7
2018-05-27T03:41:33.689Z,1013.7
2018-05-27T03:41:59.828Z,1013.71
2018-05-27T03:42:25.968Z,1013.7
2018-05-27T03:42:52.106Z,1013.69
2018-05-27T03:43:18.249Z,1013.72
2018-05-27T03:43:44.391Z,1013.7
2018-05-27T03:44:10.535Z,1013.67
2018-05-27T03:44:36.672Z,1013.71
2018-05-27T03:45:02.811Z,1013.75
2018-05-27T03:45:28.949Z,1013.73
2018-05-27T03:45:55.083Z,1013.69
2018-05-27T03:46:21.253Z,1013.73
2018-05-27T03:46:47.395Z,1013.75
2018-05-27T03:47:13.537Z,1013.73
2018-05-27T03:47:39.709Z,1013.76
2018-05-27T03:48:05.869Z,1013.75
2018-05-27T03:48:32.002Z,1013.74
2018-05-27T03:48:58.174Z,1013.72
2018-05-27T03:49:24.324Z,1013.75
2018-05-27T03:49:50.457Z,1013.74
2018-05-27T03:50:16.597Z,1013.77
2018-05-27T03:50:42.740Z,1013.76
2018-05-27T03:51:08.919Z,1013.75
2018-05-27T03:51:35.063Z,1013.73
2018-05-27T03:52:01.205Z,1013.78
2018-05-27T03:52:27.369Z,1013.76
2018-05-27T03:52:53.520Z,1013.73
2018-05-27T03:53:19.652Z,1013.75
2018-05-27T03:53:45.813Z,1013.74
2018-05-27T03:54:11.961Z,1013.73
2018-05-27T03:54:38.124Z,1013.76
2018-05-27T03:55:04.266Z,1013.75
2018-05-27T03:55:30.396Z,1013.73
2018-05-27T03:55:56.548Z,1013.76
2018-05-27T03:56:22.767Z,1013.76
2018-05-27T03:56:48.927Z,1013.77
2018-05-27T03:57:15.120Z,1013.76
2018-05-27T03:57:41.251Z,1013.76
2018-05-27T03:58:07.397Z,1013.75
2018-05-27T03:58:33.559Z,1013.77
2018-05-27T03:58:59.703Z,1013.78
2018-05-27T03:59:25.841Z,1013.74
2018-05-27T03:59:51.984Z,1013.78
2018-05-27T04:00:18.150Z,1013.78
2018-05-27T04:00:44.289Z,1013.78
2018-05-27T04:01:10.431Z,1013.78
2018-05-27T04:01:36.574Z,1013.75
2018-05-27T04:02:02.710Z,1013.8
2018-05-27T04:02:28.852Z,1013.77
2018-05-27T04:02:54.988Z,1013.75
2018-05-27T04:03:21.136Z,1013.75
2018-05-27T04:03:47.304Z,1013.72
2018-05-27T04:04:13.468Z,1013.77
2018-05-27T04:04:39.611Z,1013.75
2018-05-27T04:05:05.753Z,1013.69
2018-05-27T04:05:31.894Z,1013.69
2018-05-27T04:05:58.035Z,1013.67
2018-05-27T04:06:24.176Z,1013.7
2018-05-27T04:06:50.312Z,1013.7
2018-05-27T04:07:16.470Z,1013.68
2018-05-27T04:07:42.640Z,1013.68
2018-05-27T04:08:08.778Z,1013.68
2018-05-27T04:08:34.938Z,1013.71
2018-05-27T04:09:01.082Z,1013.7
2018-05-27T04:09:27.222Z,1013.69
2018-05-27T04:09:53.366Z,1013.7
2018-05-27T04:10:19.502Z,1013.67
2018-05-27T04:10:45.641Z,1013.68
2018-05-27T04:11:11.776Z,1013.67
2018-05-27T04:11:37.915Z,1013.66
2018-05-27T04:12:04.057Z,1013.65
2018-05-27T04:12:30.193Z,1013.66
2018-05-27T04:12:56.359Z,1013.68
2018-05-27T04:13:22.500Z,1013.69
2018-05-27T04:13:48.660Z,1013.65
2018-05-27T04:14:14.791Z,1013.67
2018-05-27T04:14:40.931Z,1013.65
2018-05-27T04:15:07.079Z,1013.63
2018-05-27T04:15:33.270Z,1013.65
2018-05-27T04:15:59.404Z,1013.65
2018-05-27T04:16:25.542Z,1013.66
2018-05-27T04:16:51.687Z,1013.65
2018-05-27T04:17:17.828Z,1013.62
2018-05-27T04:17:43.967Z,1013.6
2018-05-27T04:18:10.111Z,1013.6
2018-05-27T04:18:36.245Z,1013.61
2018-05-27T04:19:02.394Z,1013.63
2018-05-27T04:19:28.537Z,1013.63
2018-05-27T04:19:54.670Z,1013.61
2018-05-27T04:20:20.815Z,1013.62
2018-05-27T04:20:46.958Z,1013.61
2018-05-27T04:21:13.122Z,1013.6
2018-05-27T04:21:39.260Z,1013.63
2018-05-27T04:22:05.402Z,1013.6
2018-05-27T04:22:31.545Z,1013.61
2018-05-27T04:22:57.686Z,1013.63
2018-05-27T04:23:23.845Z,1013.6
2018-05-27T04:23:49.988Z,1013.61
2018-05-27T04:24:16.125Z,1013.59
2018-05-27T04:24:42.276Z,1013.64
2018-05-27T04:25:08.412Z,1013.61
2018-05-27T04:25:34.560Z,1013.61
2018-05-27T04:26:00.703Z,1013.63
2018-05-27T04:26:26.863Z,1013.63
2018-05-27T04:26:52.999Z,1013.64
2018-05-27T04:27:19.146Z,1013.64
2018-05-27T04:27:45.279Z,1013.64
2018-05-27T04:28:11.445Z,1013.66
2018-05-27T04:28:37.610Z,1013.67
2018-05-27T04:29:03.728Z,1013.65
2018-05-27T04:29:29.888Z,1013.67
2018-05-27T04:29:56.033Z,1013.65
2018-05-27T04:30:22.165Z,1013.65
2018-05-27T04:30:48.330Z,1013.65
2018-05-27T04:31:14.490Z,1013.66
2018-05-27T04:31:40.662Z,1013.71
2018-05-27T04:32:06.799Z,1013.68
2018-05-27T04:32:32.937Z,1013.64
2018-05-27T04:32:59.070Z,1013.68
2018-05-27T04:33:25.212Z,1013.66
2018-05-27T04:33:51.349Z,1013.66
2018-05-27T04:34:17.485Z,1013.67
2018-05-27T04:34:43.627Z,1013.67
2018-05-27T04:35:09.802Z,1013.66
2018-05-27T04:35:36.237Z,1013.64
2018-05-27T04:36:02.529Z,1013.62
2018-05-27T04:36:28.738Z,1013.6
2018-05-27T04:36:54.868Z,1013.62
2018-05-27T04:37:21.028Z,1013.6
2018-05-27T04:37:47.174Z,1013.61
2018-05-27T04:38:13.313Z,1013.6
2018-05-27T04:38:39.481Z,1013.59
2018-05-27T04:39:05.625Z,1013.59
2018-05-27T04:39:31.762Z,1013.54
2018-05-27T04:39:57.959Z,1013.54
2018-05-27T04:40:24.101Z,1013.51
2018-05-27T04:40:50.238Z,1013.49
2018-05-27T04:41:16.402Z,1013.5
2018-05-27T04:41:42.543Z,1013.52
2018-05-27T04:42:08.684Z,1013.51
2018-05-27T04:42:34.827Z,1013.49
2018-05-27T04:43:00.964Z,1013.5
2018-05-27T04:43:27.130Z,1013.52
2018-05-27T04:43:53.269Z,1013.47
2018-05-27T04:44:19.413Z,1013.53
2018-05-27T04:44:45.554Z,1013.56
2018-05-27T04:45:11.689Z,1013.56
2018-05-27T04:45:37.870Z,1013.58
2018-05-27T04:46:04.007Z,1013.56
2018-05-27T04:46:30.184Z,1013.53
2018-05-27T04:46:56.327Z,1013.52
2018-05-27T04:47:22.469Z,1013.52
2018-05-27T04:47:48.605Z,1013.54
2018-05-27T04:48:14.778Z,1013.57
2018-05-27T04:48:40.915Z,1013.52
2018-05-27T04:49:07.056Z,1013.55
2018-05-27T04:49:33.191Z,1013.51
2018-05-27T04:49:59.339Z,1013.54
2018-05-27T04:50:25.482Z,1013.52
2018-05-27T04:50:51.617Z,1013.52
2018-05-27T04:51:17.746Z,1013.51
2018-05-27T04:51:43.892Z,1013.52
2018-05-27T04:52:10.034Z,1013.5
2018-05-27T04:52:36.173Z,1013.51
2018-05-27T04:53:02.333Z,1013.47
2018-05-27T04:53:28.525Z,1013.47
2018-05-27T04:53:54.679Z,1013.43
2018-05-27T04:54:20.815Z,1013.46
2018-05-27T04:54:46.985Z,1013.48
2018-05-27T04:55:13.114Z,1013.45
2018-05-27T04:55:39.261Z,1013.41
2018-05-27T04:56:05.400Z,1013.4
2018-05-27T04:56:31.540Z,1013.41
2018-05-27T04:56:57.679Z,1013.44
2018-05-27T04:57:23.844Z,1013.44
2018-05-27T04:57:50.006Z,1013.48
2018-05-27T04:58:16.139Z,1013.44
2018-05-27T04:58:42.282Z,1013.46
2018-05-27T04:59:08.463Z,1013.47
2018-05-27T04:59:34.567Z,1013.44
2018-05-27T05:00:00.699Z,1013.39
2018-05-27T05:00:26.843Z,1013.43
2018-05-27T05:00:53.010Z,1013.43
2018-05-27T05:01:19.151Z,1013.43
2018-05-27T05:01:45.317Z,1013.46
2018-05-27T05:02:11.452Z,1013.42
2018-05-27T05:02:37.602Z,1013.44
2018-05-27T05:03:03.737Z,1013.43
2018-05-27T05:03:29.881Z,1013.45
2018-05-27T05:03:56.010Z,1013.44
2018-05-27T05:04:22.150Z,1013.45
2018-05-27T05:04:48.287Z,1013.45
2018-05-27T05:05:14.429Z,1013.48
2018-05-27T05:05:40.565Z,1013.43
2018-05-27T05:06:06.725Z,1013.43
2018-05-27T05:06:32.871Z,1013.46
2018-05-27T05:06:59.015Z,1013.45
2018-05-27T05:07:25.156Z,1013.46
2018-05-27T05:07:51.294Z,1013.44
2018-05-27T05:08:17.434Z,1013.43
2018-05-27T05:08:43.577Z,1013.48
2018-05-27T05:09:09.722Z,1013.44
2018-05-27T05:09:35.887Z,1013.45
2018-05-27T05:10:02.034Z,1013.44
2018-05-27T05:10:28.167Z,1013.44
2018-05-27T05:10:54.314Z,1013.49
2018-05-27T05:11:20.457Z,1013.46
2018-05-27T05:11:46.621Z,1013.45
2018-05-27T05:12:12.764Z,1013.45
2018-05-27T05:12:38.902Z,1013.46
2018-05-27T05:13:05.046Z,1013.39
2018-05-27T05:13:31.185Z,1013.45
2018-05-27T05:13:57.350Z,1013.44
2018-05-27T05:14:23.489Z,1013.46
2018-05-27T05:14:49.650Z,1013.45
2018-05-27T05:15:15.824Z,1013.49
2018-05-27T05:15:41.998Z,1013.49
2018-05-27T05:16:08.153Z,1013.44
2018-05-27T05:16:34.346Z,1013.45
2018-05-27T05:17:00.481Z,1013.42
2018-05-27T05:17:26.624Z,1013.45